sensor_id;sensor_type;location;lat;lon;timestamp;temperature;humidity
21722;DHT22;11023;48.274;7.794;2022-07-23T00:00:52;22.10;99.90
21722;DHT22;11023;48.274;7.794;2022-07-23T00:03:18;22.00;99.90
21722;DHT22;11023;48.274;7.794;2022-07-23T00:05:44;22.00;99.90
21722;DHT22;11023;48.274;7.794;2022-07-23T00:08:09;21.90;99.90
21722;DHT22;11023;48.274;7.794;2022-07-23T00:10:35;21.80;99.90
21722;DHT22;11023;48.274;7.794;2022-07-23T00:13:01;21.80;99.90
21722;DHT22;11023;48.274;7.794;2022-07-23T00:15:26;21.90;99.90
21722;DHT22;11023;48.274;7.794;2022-07-23T00:17:52;21.90;99.90
21722;DHT22;11023;48.274;7.794;2022-07-23T00:20:18;21.80;99.90
21722;DHT22;11023;48.274;7.794;2022-07-23T00:22:48;21.80;99.90
21722;DHT22;11023;48.274;7.794;2022-07-23T00:25:14;21.70;99.90
21722;DHT22;11023;48.274;7.794;2022-07-23T00:27:39;21.60;99.90
21722;DHT22;11023;48.274;7.794;2022-07-23T00:30:06;21.50;99.90
21722;DHT22;11023;48.274;7.794;2022-07-23T00:32:31;21.40;99.90
21722;DHT22;11023;48.274;7.794;2022-07-23T00:34:57;21.40;99.90
21722;DHT22;11023;48.274;7.794;2022-07-23T00:37:23;21.30;99.90
21722;DHT22;11023;48.274;7.794;2022-07-23T00:39:48;21.20;99.90
21722;DHT22;11023;48.274;7.794;2022-07-23T00:42:14;21.20;99.90
21722;DHT22;11023;48.274;7.794;2022-07-23T00:44:39;21.20;99.90
21722;DHT22;11023;48.274;7.794;2022-07-23T00:47:06;21.20;99.90
21722;DHT22;11023;48.274;7.794;2022-07-23T00:49:32;21.30;99.90
21722;DHT22;11023;48.274;7.794;2022-07-23T00:52:01;21.30;99.90
21722;DHT22;11023;48.274;7.794;2022-07-23T00:54:27;21.30;99.90
21722;DHT22;11023;48.274;7.794;2022-07-23T00:56:53;21.30;99.90
21722;DHT22;11023;48.274;7.794;2022-07-23T00:59:19;21.30;99.90
21722;DHT22;11023;48.274;7.794;2022-07-23T01:01:45;21.30;99.90
21722;DHT22;11023;48.274;7.794;2022-07-23T01:04:13;21.30;99.90
21722;DHT22;11023;48.274;7.794;2022-07-23T01:06:41;21.20;99.90
21722;DHT22;11023;48.274;7.794;2022-07-23T01:09:08;21.20;99.90
21722;DHT22;11023;48.274;7.794;2022-07-23T01:11:35;21.20;99.90
21722;DHT22;11023;48.274;7.794;2022-07-23T01:14:16;21.20;99.90
21722;DHT22;11023;48.274;7.794;2022-07-23T01:16:44;21.20;99.90
21722;DHT22;11023;48.274;7.794;2022-07-23T01:19:10;21.20;99.90
21722;DHT22;11023;48.274;7.794;2022-07-23T01:21:41;21.20;99.90
21722;DHT22;11023;48.274;7.794;2022-07-23T01:24:07;21.10;99.90
21722;DHT22;11023;48.274;7.794;2022-07-23T01:26:33;21.10;99.90
21722;DHT22;11023;48.274;7.794;2022-07-23T01:28:59;21.00;99.90
21722;DHT22;11023;48.274;7.794;2022-07-23T01:31:26;21.00;99.90
21722;DHT22;11023;48.274;7.794;2022-07-23T01:33:51;21.00;99.90
21722;DHT22;11023;48.274;7.794;2022-07-23T01:36:17;20.90;99.90
21722;DHT22;11023;48.274;7.794;2022-07-23T01:38:43;21.00;99.90
21722;DHT22;11023;48.274;7.794;2022-07-23T01:41:08;20.90;99.90
21722;DHT22;11023;48.274;7.794;2022-07-23T01:43:34;20.80;99.90
21722;DHT22;11023;48.274;7.794;2022-07-23T01:46:00;20.80;99.90
21722;DHT22;11023;48.274;7.794;2022-07-23T01:48:25;20.70;99.90
21722;DHT22;11023;48.274;7.794;2022-07-23T01:50:51;20.70;99.90
21722;DHT22;11023;48.274;7.794;2022-07-23T01:53:17;20.60;99.90
21722;DHT22;11023;48.274;7.794;2022-07-23T01:55:43;20.60;99.90
21722;DHT22;11023;48.274;7.794;2022-07-23T01:58:09;20.60;99.90
21722;DHT22;11023;48.274;7.794;2022-07-23T02:00:35;20.60;99.90
21722;DHT22;11023;48.274;7.794;2022-07-23T02:03:00;20.60;99.90
21722;DHT22;11023;48.274;7.794;2022-07-23T02:05:26;20.50;99.90
21722;DHT22;11023;48.274;7.794;2022-07-23T02:07:54;20.50;99.90
21722;DHT22;11023;48.274;7.794;2022-07-23T02:10:20;20.50;99.90
21722;DHT22;11023;48.274;7.794;2022-07-23T02:12:46;20.50;99.90
21722;DHT22;11023;48.274;7.794;2022-07-23T02:15:12;20.50;99.90
21722;DHT22;11023;48.274;7.794;2022-07-23T02:17:37;20.40;99.90
21722;DHT22;11023;48.274;7.794;2022-07-23T02:20:04;20.30;99.90
21722;DHT22;11023;48.274;7.794;2022-07-23T02:22:30;20.20;99.90
21722;DHT22;11023;48.274;7.794;2022-07-23T02:24:56;20.10;99.90
21722;DHT22;11023;48.274;7.794;2022-07-23T02:27:21;20.20;99.90
21722;DHT22;11023;48.274;7.794;2022-07-23T02:29:48;20.10;99.90
21722;DHT22;11023;48.274;7.794;2022-07-23T02:32:14;20.10;99.90
21722;DHT22;11023;48.274;7.794;2022-07-23T02:34:39;20.10;99.90
21722;DHT22;11023;48.274;7.794;2022-07-23T02:37:05;20.00;99.90
21722;DHT22;11023;48.274;7.794;2022-07-23T02:39:31;20.00;99.90
21722;DHT22;11023;48.274;7.794;2022-07-23T02:41:56;20.10;99.90
21722;DHT22;11023;48.274;7.794;2022-07-23T02:44:22;20.00;99.90
21722;DHT22;11023;48.274;7.794;2022-07-23T02:46:48;20.10;99.90
21722;DHT22;11023;48.274;7.794;2022-07-23T02:49:13;20.00;99.90
21722;DHT22;11023;48.274;7.794;2022-07-23T02:51:39;20.00;99.90
21722;DHT22;11023;48.274;7.794;2022-07-23T02:54:05;20.00;99.90
21722;DHT22;11023;48.274;7.794;2022-07-23T02:56:31;19.90;99.90
21722;DHT22;11023;48.274;7.794;2022-07-23T02:58:57;19.90;99.90
21722;DHT22;11023;48.274;7.794;2022-07-23T03:01:22;19.90;99.90
21722;DHT22;11023;48.274;7.794;2022-07-23T03:03:48;19.90;99.90
21722;DHT22;11023;48.274;7.794;2022-07-23T03:06:14;19.90;99.90
21722;DHT22;11023;48.274;7.794;2022-07-23T03:08:39;19.90;99.90
21722;DHT22;11023;48.274;7.794;2022-07-23T03:11:05;19.90;99.90
21722;DHT22;11023;48.274;7.794;2022-07-23T03:13:36;19.90;99.90
21722;DHT22;11023;48.274;7.794;2022-07-23T03:16:02;19.90;99.90
21722;DHT22;11023;48.274;7.794;2022-07-23T03:18:28;19.90;99.90
21722;DHT22;11023;48.274;7.794;2022-07-23T03:20:54;19.90;99.90
21722;DHT22;11023;48.274;7.794;2022-07-23T03:23:20;19.90;99.90
21722;DHT22;11023;48.274;7.794;2022-07-23T03:25:45;19.80;99.90
21722;DHT22;11023;48.274;7.794;2022-07-23T03:28:17;19.80;99.90
21722;DHT22;11023;48.274;7.794;2022-07-23T03:30:44;19.70;99.90
21722;DHT22;11023;48.274;7.794;2022-07-23T03:33:15;19.70;99.90
21722;DHT22;11023;48.274;7.794;2022-07-23T03:35:43;19.70;99.90
21722;DHT22;11023;48.274;7.794;2022-07-23T03:38:08;19.60;99.90
21722;DHT22;11023;48.274;7.794;2022-07-23T03:40:34;19.60;99.90
21722;DHT22;11023;48.274;7.794;2022-07-23T03:43:00;19.70;99.90
21722;DHT22;11023;48.274;7.794;2022-07-23T03:45:26;19.70;99.90
21722;DHT22;11023;48.274;7.794;2022-07-23T03:47:52;19.70;99.90
21722;DHT22;11023;48.274;7.794;2022-07-23T03:50:17;19.80;99.90
21722;DHT22;11023;48.274;7.794;2022-07-23T03:52:43;19.80;99.90
21722;DHT22;11023;48.274;7.794;2022-07-23T03:55:09;19.80;99.90
21722;DHT22;11023;48.274;7.794;2022-07-23T03:57:34;19.80;99.90
21722;DHT22;11023;48.274;7.794;2022-07-23T04:00:00;19.80;99.90
21722;DHT22;11023;48.274;7.794;2022-07-23T04:02:26;19.80;99.90
21722;DHT22;11023;48.274;7.794;2022-07-23T04:04:52;19.80;99.90
21722;DHT22;11023;48.274;7.794;2022-07-23T04:07:18;19.80;99.90
21722;DHT22;11023;48.274;7.794;2022-07-23T04:09:44;19.90;99.90
21722;DHT22;11023;48.274;7.794;2022-07-23T04:12:10;19.90;99.90
21722;DHT22;11023;48.274;7.794;2022-07-23T04:14:35;19.90;99.90
21722;DHT22;11023;48.274;7.794;2022-07-23T04:17:01;20.00;99.90
21722;DHT22;11023;48.274;7.794;2022-07-23T04:19:27;19.90;99.90
21722;DHT22;11023;48.274;7.794;2022-07-23T04:21:53;20.00;99.90
21722;DHT22;11023;48.274;7.794;2022-07-23T04:24:19;20.00;99.90
21722;DHT22;11023;48.274;7.794;2022-07-23T04:26:45;20.00;99.90
21722;DHT22;11023;48.274;7.794;2022-07-23T04:29:11;20.00;99.90
21722;DHT22;11023;48.274;7.794;2022-07-23T04:31:36;20.00;99.90
21722;DHT22;11023;48.274;7.794;2022-07-23T04:34:02;20.00;99.90
21722;DHT22;11023;48.274;7.794;2022-07-23T04:36:28;20.00;99.90
21722;DHT22;11023;48.274;7.794;2022-07-23T04:38:54;20.00;99.90
21722;DHT22;11023;48.274;7.794;2022-07-23T04:41:20;20.00;99.90
21722;DHT22;11023;48.274;7.794;2022-07-23T04:43:46;20.00;99.90
21722;DHT22;11023;48.274;7.794;2022-07-23T04:46:12;20.10;99.90
21722;DHT22;11023;48.274;7.794;2022-07-23T04:48:38;20.10;99.90
21722;DHT22;11023;48.274;7.794;2022-07-23T04:51:03;20.10;99.90
21722;DHT22;11023;48.274;7.794;2022-07-23T04:53:29;20.10;99.90
21722;DHT22;11023;48.274;7.794;2022-07-23T04:55:55;20.10;99.90
21722;DHT22;11023;48.274;7.794;2022-07-23T04:58:21;20.10;99.90
21722;DHT22;11023;48.274;7.794;2022-07-23T05:00:47;20.20;99.90
21722;DHT22;11023;48.274;7.794;2022-07-23T05:03:13;20.30;99.90
21722;DHT22;11023;48.274;7.794;2022-07-23T05:05:38;20.40;99.90
21722;DHT22;11023;48.274;7.794;2022-07-23T05:08:04;20.50;99.90
21722;DHT22;11023;48.274;7.794;2022-07-23T05:10:30;20.60;99.90
21722;DHT22;11023;48.274;7.794;2022-07-23T05:12:56;20.60;99.90
21722;DHT22;11023;48.274;7.794;2022-07-23T05:15:22;20.70;99.90
21722;DHT22;11023;48.274;7.794;2022-07-23T05:17:48;20.70;99.90
21722;DHT22;11023;48.274;7.794;2022-07-23T05:20:13;20.80;99.90
21722;DHT22;11023;48.274;7.794;2022-07-23T05:22:39;20.80;99.90
21722;DHT22;11023;48.274;7.794;2022-07-23T05:25:05;20.80;99.90
21722;DHT22;11023;48.274;7.794;2022-07-23T05:27:31;20.90;99.90
21722;DHT22;11023;48.274;7.794;2022-07-23T05:29:57;20.90;99.90
21722;DHT22;11023;48.274;7.794;2022-07-23T05:32:23;20.90;99.90
21722;DHT22;11023;48.274;7.794;2022-07-23T05:34:49;20.90;99.90
21722;DHT22;11023;48.274;7.794;2022-07-23T05:37:15;20.90;99.90
21722;DHT22;11023;48.274;7.794;2022-07-23T05:39:41;21.00;99.90
21722;DHT22;11023;48.274;7.794;2022-07-23T05:42:07;21.00;99.90
21722;DHT22;11023;48.274;7.794;2022-07-23T05:44:33;21.10;99.90
21722;DHT22;11023;48.274;7.794;2022-07-23T05:46:59;21.10;99.90
21722;DHT22;11023;48.274;7.794;2022-07-23T05:49:24;21.10;99.90
21722;DHT22;11023;48.274;7.794;2022-07-23T05:51:50;21.10;99.90
21722;DHT22;11023;48.274;7.794;2022-07-23T05:54:16;21.20;99.90
21722;DHT22;11023;48.274;7.794;2022-07-23T05:56:41;21.10;99.90
21722;DHT22;11023;48.274;7.794;2022-07-23T05:59:07;21.20;99.90
21722;DHT22;11023;48.274;7.794;2022-07-23T06:01:33;21.20;99.90
21722;DHT22;11023;48.274;7.794;2022-07-23T06:03:59;21.20;99.90
21722;DHT22;11023;48.274;7.794;2022-07-23T06:06:25;21.30;99.90
21722;DHT22;11023;48.274;7.794;2022-07-23T06:08:50;21.30;99.90
21722;DHT22;11023;48.274;7.794;2022-07-23T06:11:16;21.30;99.90
21722;DHT22;11023;48.274;7.794;2022-07-23T06:13:41;21.30;99.90
21722;DHT22;11023;48.274;7.794;2022-07-23T06:16:07;21.30;99.90
21722;DHT22;11023;48.274;7.794;2022-07-23T06:18:33;21.30;99.90
21722;DHT22;11023;48.274;7.794;2022-07-23T06:20:59;21.40;99.90
21722;DHT22;11023;48.274;7.794;2022-07-23T06:23:24;21.40;99.90
21722;DHT22;11023;48.274;7.794;2022-07-23T06:25:50;21.50;99.90
21722;DHT22;11023;48.274;7.794;2022-07-23T06:28:15;21.60;99.90
21722;DHT22;11023;48.274;7.794;2022-07-23T06:30:41;21.70;99.90
21722;DHT22;11023;48.274;7.794;2022-07-23T06:33:07;21.80;99.90
21722;DHT22;11023;48.274;7.794;2022-07-23T06:35:33;21.90;99.90
21722;DHT22;11023;48.274;7.794;2022-07-23T06:37:59;22.00;99.90
21722;DHT22;11023;48.274;7.794;2022-07-23T06:40:25;22.10;99.90
21722;DHT22;11023;48.274;7.794;2022-07-23T06:42:51;22.10;99.90
21722;DHT22;11023;48.274;7.794;2022-07-23T06:45:19;22.30;99.90
21722;DHT22;11023;48.274;7.794;2022-07-23T06:47:44;22.40;99.90
21722;DHT22;11023;48.274;7.794;2022-07-23T06:50:10;22.50;99.90
21722;DHT22;11023;48.274;7.794;2022-07-23T06:52:36;22.60;99.90
21722;DHT22;11023;48.274;7.794;2022-07-23T06:55:02;22.60;99.90
21722;DHT22;11023;48.274;7.794;2022-07-23T06:57:27;22.60;99.90
21722;DHT22;11023;48.274;7.794;2022-07-23T06:59:53;22.70;99.90
21722;DHT22;11023;48.274;7.794;2022-07-23T07:02:19;22.80;99.90
21722;DHT22;11023;48.274;7.794;2022-07-23T07:04:45;23.00;99.90
21722;DHT22;11023;48.274;7.794;2022-07-23T07:07:11;23.00;99.90
21722;DHT22;11023;48.274;7.794;2022-07-23T07:09:37;23.10;99.90
21722;DHT22;11023;48.274;7.794;2022-07-23T07:12:03;23.20;99.90
21722;DHT22;11023;48.274;7.794;2022-07-23T07:14:29;23.30;99.90
21722;DHT22;11023;48.274;7.794;2022-07-23T07:16:55;23.30;99.90
21722;DHT22;11023;48.274;7.794;2022-07-23T07:19:20;23.50;99.90
21722;DHT22;11023;48.274;7.794;2022-07-23T07:21:46;23.60;99.90
21722;DHT22;11023;48.274;7.794;2022-07-23T07:24:12;23.60;99.90
21722;DHT22;11023;48.274;7.794;2022-07-23T07:26:37;23.70;99.90
21722;DHT22;11023;48.274;7.794;2022-07-23T07:29:05;23.80;99.90
21722;DHT22;11023;48.274;7.794;2022-07-23T07:31:31;23.90;99.90
21722;DHT22;11023;48.274;7.794;2022-07-23T07:33:56;24.00;99.90
21722;DHT22;11023;48.274;7.794;2022-07-23T07:36:23;24.00;99.90
21722;DHT22;11023;48.274;7.794;2022-07-23T07:38:49;24.10;99.90
21722;DHT22;11023;48.274;7.794;2022-07-23T07:41:14;24.20;99.90
21722;DHT22;11023;48.274;7.794;2022-07-23T07:43:41;24.30;99.90
21722;DHT22;11023;48.274;7.794;2022-07-23T07:46:07;24.30;99.90
21722;DHT22;11023;48.274;7.794;2022-07-23T07:48:38;24.40;99.90
21722;DHT22;11023;48.274;7.794;2022-07-23T07:51:04;24.50;99.90
21722;DHT22;11023;48.274;7.794;2022-07-23T07:53:30;24.40;99.90
21722;DHT22;11023;48.274;7.794;2022-07-23T07:55:56;24.50;99.90
21722;DHT22;11023;48.274;7.794;2022-07-23T07:58:22;24.60;99.90
21722;DHT22;11023;48.274;7.794;2022-07-23T08:00:47;24.70;99.90
21722;DHT22;11023;48.274;7.794;2022-07-23T08:03:13;24.80;99.90
21722;DHT22;11023;48.274;7.794;2022-07-23T08:05:39;25.00;99.90
21722;DHT22;11023;48.274;7.794;2022-07-23T08:08:05;25.10;99.90
21722;DHT22;11023;48.274;7.794;2022-07-23T08:10:31;25.20;99.90
21722;DHT22;11023;48.274;7.794;2022-07-23T08:12:58;25.30;99.90
21722;DHT22;11023;48.274;7.794;2022-07-23T08:15:25;25.40;99.90
21722;DHT22;11023;48.274;7.794;2022-07-23T08:17:52;25.50;99.90
21722;DHT22;11023;48.274;7.794;2022-07-23T08:20:21;25.40;99.90
21722;DHT22;11023;48.274;7.794;2022-07-23T08:22:55;25.60;99.90
21722;DHT22;11023;48.274;7.794;2022-07-23T08:25:25;25.50;99.90
21722;DHT22;11023;48.274;7.794;2022-07-23T08:27:51;25.50;99.90
21722;DHT22;11023;48.274;7.794;2022-07-23T08:30:18;25.60;99.90
21722;DHT22;11023;48.274;7.794;2022-07-23T08:33:05;25.70;99.90
21722;DHT22;11023;48.274;7.794;2022-07-23T08:35:35;25.90;99.90
21722;DHT22;11023;48.274;7.794;2022-07-23T08:38:03;26.10;99.90
21722;DHT22;11023;48.274;7.794;2022-07-23T08:40:32;26.20;99.90
21722;DHT22;11023;48.274;7.794;2022-07-23T08:42:58;26.30;99.90
21722;DHT22;11023;48.274;7.794;2022-07-23T08:45:26;26.50;99.90
21722;DHT22;11023;48.274;7.794;2022-07-23T08:47:56;26.60;99.90
21722;DHT22;11023;48.274;7.794;2022-07-23T08:50:23;26.70;99.90
21722;DHT22;11023;48.274;7.794;2022-07-23T08:52:50;26.70;99.90
21722;DHT22;11023;48.274;7.794;2022-07-23T08:55:17;26.80;99.90
21722;DHT22;11023;48.274;7.794;2022-07-23T08:57:44;26.70;99.90
21722;DHT22;11023;48.274;7.794;2022-07-23T09:00:10;26.80;99.90
21722;DHT22;11023;48.274;7.794;2022-07-23T09:02:41;26.80;99.90
21722;DHT22;11023;48.274;7.794;2022-07-23T09:05:08;26.90;99.90
21722;DHT22;11023;48.274;7.794;2022-07-23T09:07:35;26.90;99.90
21722;DHT22;11023;48.274;7.794;2022-07-23T09:10:07;27.10;99.90
21722;DHT22;11023;48.274;7.794;2022-07-23T09:12:33;27.30;99.90
21722;DHT22;11023;48.274;7.794;2022-07-23T09:15:07;27.40;99.90
21722;DHT22;11023;48.274;7.794;2022-07-23T09:17:39;27.40;99.90
21722;DHT22;11023;48.274;7.794;2022-07-23T09:20:13;27.40;99.90
21722;DHT22;11023;48.274;7.794;2022-07-23T09:22:49;27.40;99.90
21722;DHT22;11023;48.274;7.794;2022-07-23T09:25:18;27.30;99.90
21722;DHT22;11023;48.274;7.794;2022-07-23T09:27:54;27.20;99.90
21722;DHT22;11023;48.274;7.794;2022-07-23T09:30:22;27.40;99.90
21722;DHT22;11023;48.274;7.794;2022-07-23T09:33:07;27.30;99.90
21722;DHT22;11023;48.274;7.794;2022-07-23T09:35:51;27.40;99.90
21722;DHT22;11023;48.274;7.794;2022-07-23T09:38:18;27.40;99.90
21722;DHT22;11023;48.274;7.794;2022-07-23T09:40:45;27.40;99.90
21722;DHT22;11023;48.274;7.794;2022-07-23T09:43:12;27.50;99.90
21722;DHT22;11023;48.274;7.794;2022-07-23T09:45:38;27.50;99.90
21722;DHT22;11023;48.274;7.794;2022-07-23T09:48:12;27.40;99.90
21722;DHT22;11023;48.274;7.794;2022-07-23T09:50:39;27.50;99.90
21722;DHT22;11023;48.274;7.794;2022-07-23T09:53:05;27.50;99.90
21722;DHT22;11023;48.274;7.794;2022-07-23T09:55:33;27.50;99.90
21722;DHT22;11023;48.274;7.794;2022-07-23T09:58:03;27.50;99.90
21722;DHT22;11023;48.274;7.794;2022-07-23T10:00:30;27.50;99.90
21722;DHT22;11023;48.274;7.794;2022-07-23T10:02:57;27.60;99.90
21722;DHT22;11023;48.274;7.794;2022-07-23T10:05:24;27.80;99.90
21722;DHT22;11023;48.274;7.794;2022-07-23T10:07:51;28.00;99.90
21722;DHT22;11023;48.274;7.794;2022-07-23T10:10:17;27.90;99.90
21722;DHT22;11023;48.274;7.794;2022-07-23T10:12:44;27.80;99.90
21722;DHT22;11023;48.274;7.794;2022-07-23T10:15:10;27.80;99.90
21722;DHT22;11023;48.274;7.794;2022-07-23T10:17:36;27.80;99.90
21722;DHT22;11023;48.274;7.794;2022-07-23T10:20:03;27.80;99.90
21722;DHT22;11023;48.274;7.794;2022-07-23T10:22:38;27.80;99.90
21722;DHT22;11023;48.274;7.794;2022-07-23T10:25:27;27.90;99.90
21722;DHT22;11023;48.274;7.794;2022-07-23T10:36:32;28.70;99.90
21722;DHT22;11023;48.274;7.794;2022-07-23T10:39:13;28.90;99.90
21722;DHT22;11023;48.274;7.794;2022-07-23T10:41:41;29.10;99.90
21722;DHT22;11023;48.274;7.794;2022-07-23T10:44:20;29.20;99.90
21722;DHT22;11023;48.274;7.794;2022-07-23T10:49:41;28.80;99.90
21722;DHT22;11023;48.274;7.794;2022-07-23T10:52:26;28.80;99.90
21722;DHT22;11023;48.274;7.794;2022-07-23T10:57:27;28.80;99.90
21722;DHT22;11023;48.274;7.794;2022-07-23T11:02:32;28.60;99.90
21722;DHT22;11023;48.274;7.794;2022-07-23T11:05:11;28.70;99.90
21722;DHT22;11023;48.274;7.794;2022-07-23T11:10:44;29.00;99.90
21722;DHT22;11023;48.274;7.794;2022-07-23T11:24:13;29.40;99.90
21722;DHT22;11023;48.274;7.794;2022-07-23T11:26:50;29.20;99.90
21722;DHT22;11023;48.274;7.794;2022-07-23T11:34:47;29.40;99.90
21722;DHT22;11023;48.274;7.794;2022-07-23T11:39:55;29.60;99.90
21722;DHT22;11023;48.274;7.794;2022-07-23T11:42:21;29.80;99.90
21722;DHT22;11023;48.274;7.794;2022-07-23T11:44:47;30.20;99.90
21722;DHT22;11023;48.274;7.794;2022-07-23T11:47:13;30.40;99.90
21722;DHT22;11023;48.274;7.794;2022-07-23T11:49:43;30.50;99.90
21722;DHT22;11023;48.274;7.794;2022-07-23T11:52:18;30.40;99.90
21722;DHT22;11023;48.274;7.794;2022-07-23T11:54:53;30.20;99.90
21722;DHT22;11023;48.274;7.794;2022-07-23T11:57:21;30.10;99.90
21722;DHT22;11023;48.274;7.794;2022-07-23T11:59:53;29.90;99.90
21722;DHT22;11023;48.274;7.794;2022-07-23T12:02:20;30.00;99.90
21722;DHT22;11023;48.274;7.794;2022-07-23T12:04:49;30.20;99.90
21722;DHT22;11023;48.274;7.794;2022-07-23T12:07:35;30.30;99.90
21722;DHT22;11023;48.274;7.794;2022-07-23T12:10:33;30.30;99.90
21722;DHT22;11023;48.274;7.794;2022-07-23T12:13:19;30.30;99.90
21722;DHT22;11023;48.274;7.794;2022-07-23T12:15:49;30.40;99.90
21722;DHT22;11023;48.274;7.794;2022-07-23T12:18:22;30.50;99.90
21722;DHT22;11023;48.274;7.794;2022-07-23T12:20:51;30.40;99.90
21722;DHT22;11023;48.274;7.794;2022-07-23T12:23:19;30.30;99.90
21722;DHT22;11023;48.274;7.794;2022-07-23T12:25:46;30.60;99.90
21722;DHT22;11023;48.274;7.794;2022-07-23T12:28:14;30.60;99.90
21722;DHT22;11023;48.274;7.794;2022-07-23T12:30:48;30.80;99.90
21722;DHT22;11023;48.274;7.794;2022-07-23T12:35:47;30.60;99.90
21722;DHT22;11023;48.274;7.794;2022-07-23T12:38:19;30.80;99.90
21722;DHT22;11023;48.274;7.794;2022-07-23T12:40:49;30.90;99.90
21722;DHT22;11023;48.274;7.794;2022-07-23T12:46:06;30.80;99.90
21722;DHT22;11023;48.274;7.794;2022-07-23T12:48:34;30.60;99.90
21722;DHT22;11023;48.274;7.794;2022-07-23T12:51:14;30.30;99.90
21722;DHT22;11023;48.274;7.794;2022-07-23T12:53:43;30.20;99.90
21722;DHT22;11023;48.274;7.794;2022-07-23T12:56:17;30.20;99.90
21722;DHT22;11023;48.274;7.794;2022-07-23T12:58:49;30.30;99.90
21722;DHT22;11023;48.274;7.794;2022-07-23T13:04:09;31.20;99.90
21722;DHT22;11023;48.274;7.794;2022-07-23T13:06:36;31.90;99.90
21722;DHT22;11023;48.274;7.794;2022-07-23T13:09:05;31.90;99.90
21722;DHT22;11023;48.274;7.794;2022-07-23T13:11:31;31.60;99.90
21722;DHT22;11023;48.274;7.794;2022-07-23T13:13:57;31.70;99.90
21722;DHT22;11023;48.274;7.794;2022-07-23T13:16:23;31.80;99.90
21722;DHT22;11023;48.274;7.794;2022-07-23T13:18:49;32.00;99.90
21722;DHT22;11023;48.274;7.794;2022-07-23T13:21:15;31.90;99.90
21722;DHT22;11023;48.274;7.794;2022-07-23T13:23:41;31.90;99.90
21722;DHT22;11023;48.274;7.794;2022-07-23T13:26:07;32.20;99.90
21722;DHT22;11023;48.274;7.794;2022-07-23T13:28:33;32.20;99.90
21722;DHT22;11023;48.274;7.794;2022-07-23T13:30:59;32.00;99.90
21722;DHT22;11023;48.274;7.794;2022-07-23T13:33:25;31.80;99.90
21722;DHT22;11023;48.274;7.794;2022-07-23T13:35:52;31.70;99.90
21722;DHT22;11023;48.274;7.794;2022-07-23T13:38:19;31.70;99.90
21722;DHT22;11023;48.274;7.794;2022-07-23T13:40:48;31.60;99.90
21722;DHT22;11023;48.274;7.794;2022-07-23T13:43:17;31.70;99.90
21722;DHT22;11023;48.274;7.794;2022-07-23T13:45:44;31.80;99.90
21722;DHT22;11023;48.274;7.794;2022-07-23T13:48:10;32.10;99.90
21722;DHT22;11023;48.274;7.794;2022-07-23T13:50:37;32.20;99.90
21722;DHT22;11023;48.274;7.794;2022-07-23T13:53:04;32.30;99.90
21722;DHT22;11023;48.274;7.794;2022-07-23T13:55:31;32.40;99.90
21722;DHT22;11023;48.274;7.794;2022-07-23T13:57:58;32.30;99.90
21722;DHT22;11023;48.274;7.794;2022-07-23T14:00:24;32.20;99.90
21722;DHT22;11023;48.274;7.794;2022-07-23T14:02:50;32.30;99.90
21722;DHT22;11023;48.274;7.794;2022-07-23T14:05:16;32.60;99.90
21722;DHT22;11023;48.274;7.794;2022-07-23T14:07:42;32.80;99.90
21722;DHT22;11023;48.274;7.794;2022-07-23T14:10:10;32.80;99.90
21722;DHT22;11023;48.274;7.794;2022-07-23T14:12:36;33.20;99.90
21722;DHT22;11023;48.274;7.794;2022-07-23T14:15:04;33.80;99.90
21722;DHT22;11023;48.274;7.794;2022-07-23T14:17:30;34.30;99.90
21722;DHT22;11023;48.274;7.794;2022-07-23T14:19:57;34.30;99.90
21722;DHT22;11023;48.274;7.794;2022-07-23T14:22:23;34.70;99.90
21722;DHT22;11023;48.274;7.794;2022-07-23T14:24:49;35.00;99.90
21722;DHT22;11023;48.274;7.794;2022-07-23T14:27:14;34.90;99.90
21722;DHT22;11023;48.274;7.794;2022-07-23T14:29:40;35.00;99.90
21722;DHT22;11023;48.274;7.794;2022-07-23T14:32:07;35.00;99.90
21722;DHT22;11023;48.274;7.794;2022-07-23T14:34:33;34.70;99.90
21722;DHT22;11023;48.274;7.794;2022-07-23T14:36:59;34.70;99.90
21722;DHT22;11023;48.274;7.794;2022-07-23T14:39:25;34.50;99.90
21722;DHT22;11023;48.274;7.794;2022-07-23T14:41:51;33.90;99.90
21722;DHT22;11023;48.274;7.794;2022-07-23T14:44:17;33.90;99.90
21722;DHT22;11023;48.274;7.794;2022-07-23T14:46:42;33.90;99.90
21722;DHT22;11023;48.274;7.794;2022-07-23T14:49:08;33.90;99.90
21722;DHT22;11023;48.274;7.794;2022-07-23T14:51:34;34.20;99.90
21722;DHT22;11023;48.274;7.794;2022-07-23T14:54:00;34.40;99.90
21722;DHT22;11023;48.274;7.794;2022-07-23T14:56:25;34.40;99.90
21722;DHT22;11023;48.274;7.794;2022-07-23T14:58:51;34.60;99.90
21722;DHT22;11023;48.274;7.794;2022-07-23T15:01:16;34.60;99.90
21722;DHT22;11023;48.274;7.794;2022-07-23T15:03:42;34.60;99.90
21722;DHT22;11023;48.274;7.794;2022-07-23T15:06:08;34.50;99.90
21722;DHT22;11023;48.274;7.794;2022-07-23T15:08:34;34.20;99.90
21722;DHT22;11023;48.274;7.794;2022-07-23T15:10:59;34.10;99.90
21722;DHT22;11023;48.274;7.794;2022-07-23T15:13:25;34.20;99.90
21722;DHT22;11023;48.274;7.794;2022-07-23T15:15:51;34.00;99.90
21722;DHT22;11023;48.274;7.794;2022-07-23T15:18:16;34.00;99.90
21722;DHT22;11023;48.274;7.794;2022-07-23T15:20:42;33.80;99.90
21722;DHT22;11023;48.274;7.794;2022-07-23T15:23:08;33.70;99.90
21722;DHT22;11023;48.274;7.794;2022-07-23T15:25:34;33.90;99.90
21722;DHT22;11023;48.274;7.794;2022-07-23T15:28:00;33.90;99.90
21722;DHT22;11023;48.274;7.794;2022-07-23T15:30:27;34.00;99.90
21722;DHT22;11023;48.274;7.794;2022-07-23T15:32:52;34.30;99.90
21722;DHT22;11023;48.274;7.794;2022-07-23T15:35:19;34.30;99.90
21722;DHT22;11023;48.274;7.794;2022-07-23T15:37:45;34.30;99.90
21722;DHT22;11023;48.274;7.794;2022-07-23T15:40:11;34.30;99.90
21722;DHT22;11023;48.274;7.794;2022-07-23T15:42:37;34.50;99.90
21722;DHT22;11023;48.274;7.794;2022-07-23T15:45:04;34.60;99.90
21722;DHT22;11023;48.274;7.794;2022-07-23T15:47:30;34.80;99.90
21722;DHT22;11023;48.274;7.794;2022-07-23T15:49:56;35.10;99.90
21722;DHT22;11023;48.274;7.794;2022-07-23T15:52:22;34.90;99.90
21722;DHT22;11023;48.274;7.794;2022-07-23T15:54:48;34.80;99.90
21722;DHT22;11023;48.274;7.794;2022-07-23T15:57:13;34.70;99.90
21722;DHT22;11023;48.274;7.794;2022-07-23T15:59:39;34.40;99.90
21722;DHT22;11023;48.274;7.794;2022-07-23T16:02:05;33.90;99.90
21722;DHT22;11023;48.274;7.794;2022-07-23T16:04:31;33.90;99.90
21722;DHT22;11023;48.274;7.794;2022-07-23T16:06:57;33.90;99.90
21722;DHT22;11023;48.274;7.794;2022-07-23T16:09:23;33.60;99.90
21722;DHT22;11023;48.274;7.794;2022-07-23T16:11:49;33.20;99.90
21722;DHT22;11023;48.274;7.794;2022-07-23T16:14:16;32.60;99.90
21722;DHT22;11023;48.274;7.794;2022-07-23T16:16:42;32.60;99.90